Time;durP1;ratioP1;P1;durP2;ratioP2;P2;SDS_P1;SDS_P2;PMS_P1;PMS_P2;Temp;Humidity;BMP_temperature;BMP_pressure;BME280_temperature;BME280_humidity;BME280_pressure;Samples;Min_cycle;Max_cycle;Signal;HPM_P1;HPM_P2
2022/04/28 00:00:17;;;;;;;8.97;5.20;;;9.00;1.00;;;;;;5055232;28;20210;-55
2022/04/28 00:02:43;;;;;;;6.63;3.47;;;9.10;1.00;;;;;;5052989;28;20235;-53
2022/04/28 00:05:11;;;;;;;6.83;3.70;;;9.00;31.90;;;;;;5054596;28;20198;-57
2022/04/28 00:07:38;;;;;;;9.17;3.77;;;9.00;99.90;;;;;;5054089;28;20574;-55
2022/04/28 00:10:07;;;;;;;5.73;3.57;;;9.00;99.90;;;;;;5064573;28;20201;-54
2022/04/28 00:12:35;;;;;;;4.73;3.63;;;8.90;1.00;;;;;;5066154;28;20264;-57
2022/04/28 00:15:02;;;;;;;7.53;3.50;;;9.00;99.90;;;;;;5065238;28;20251;-55
2022/04/28 00:17:29;;;;;;;8.97;3.87;;;8.90;1.00;;;;;;5060850;28;20331;-55
2022/04/28 00:19:56;;;;;;;8.13;4.00;;;8.90;99.90;;;;;;5063093;28;21783;-55
2022/04/28 00:22:24;;;;;;;6.73;3.63;;;8.90;1.00;;;;;;5034394;28;20229;-55
2022/04/28 00:24:51;;;;;;;11.27;4.73;;;8.90;1.00;;;;;;5059436;28;20609;-55
2022/04/28 00:27:18;;;;;;;9.10;4.53;;;8.90;1.00;;;;;;5065189;28;20585;-57
2022/04/28 00:29:45;;;;;;;5.10;3.60;;;8.70;1.00;;;;;;5057486;28;20631;-55
2022/04/28 00:32:12;;;;;;;7.57;4.23;;;8.80;1.00;;;;;;5060548;28;20532;-57
2022/04/28 00:34:39;;;;;;;6.63;4.00;;;8.80;1.00;;;;;;5064842;28;20214;-55
2022/04/28 00:37:08;;;;;;;11.03;4.13;;;8.80;1.00;;;;;;5066045;28;20644;-56
2022/04/28 00:39:37;;;;;;;7.47;4.10;;;8.70;99.90;;;;;;5058422;28;20225;-57
2022/04/28 00:42:12;;;;;;;7.43;4.07;;;8.80;99.90;;;;;;5067255;28;20226;-56
2022/04/28 00:44:40;;;;;;;9.10;3.83;;;8.70;99.90;;;;;;5064918;28;20205;-55
2022/04/28 00:47:08;;;;;;;10.00;3.90;;;8.60;99.90;;;;;;5068417;28;20727;-55
2022/04/28 00:52:22;;;;;;;9.33;3.97;;;8.70;99.90;;;;;;5059165;28;20318;-57
2022/04/28 00:54:51;;;;;;;8.50;4.13;;;8.70;1.00;;;;;;5064653;28;20309;-59
2022/04/28 00:57:19;;;;;;;12.40;4.50;;;8.60;1.00;;;;;;5067946;28;21870;-56
2022/04/28 00:59:47;;;;;;;9.50;4.57;;;8.70;1.00;;;;;;5068746;28;20199;-57
2022/04/28 01:02:14;;;;;;;11.57;4.73;;;8.60;66.70;;;;;;5066649;28;20206;-56
2022/04/28 01:04:41;;;;;;;10.37;4.67;;;8.60;1.00;;;;;;5063616;28;20297;-55
2022/04/28 01:07:08;;;;;;;9.03;4.37;;;8.40;99.90;;;;;;5061712;28;20252;-57
2022/04/28 01:09:36;;;;;;;10.53;4.60;;;8.40;99.90;;;;;;5060606;28;20201;-56
2022/04/28 01:12:14;;;;;;;9.03;4.70;;;8.40;18.30;;;;;;5058728;28;20210;-56
2022/04/28 01:14:45;;;;;;;10.37;4.40;;;8.50;1.00;;;;;;5061662;28;20218;-55
2022/04/28 01:17:13;;;;;;;9.60;4.53;;;8.60;70.30;;;;;;5069994;28;20701;-55
2022/04/28 01:19:40;;;;;;;8.63;4.33;;;8.60;1.00;;;;;;5064813;28;20762;-55
2022/04/28 01:22:07;;;;;;;10.40;4.73;;;8.60;1.00;;;;;;5066546;28;20226;-56
2022/04/28 01:24:36;;;;;;;9.80;4.57;;;8.50;1.00;;;;;;5060346;28;20215;-57
2022/04/28 01:27:07;;;;;;;9.33;4.33;;;8.60;1.00;;;;;;5061227;28;20202;-57
2022/04/28 01:29:34;;;;;;;7.73;4.63;;;8.60;1.00;;;;;;5057247;28;20196;-55
2022/04/28 01:32:01;;;;;;;7.77;4.57;;;8.60;1.00;;;;;;5066747;28;20197;-56
2022/04/28 01:34:28;;;;;;;5.97;4.63;;;8.70;1.00;;;;;;5056867;28;20207;-54
2022/04/28 01:36:55;;;;;;;12.17;5.30;;;8.50;1.00;;;;;;5046733;28;20197;-57
2022/04/28 01:39:22;;;;;;;10.90;5.10;;;8.20;99.90;;;;;;5064940;28;20247;-57
2022/04/28 01:41:50;;;;;;;10.43;5.03;;;8.30;99.90;;;;;;5065011;28;20292;-56
2022/04/28 01:44:17;;;;;;;9.10;4.27;;;8.30;1.00;;;;;;5059919;28;20202;-55
2022/04/28 01:46:44;;;;;;;8.13;4.40;;;8.40;21.80;;;;;;5062514;28;20202;-55
2022/04/28 01:49:12;;;;;;;11.57;5.47;;;8.50;1.00;;;;;;5058488;28;20202;-57
2022/04/28 01:57:11;;;;;;;9.00;5.07;;;8.40;43.00;;;;;;5058089;28;20256;-54
2022/04/28 01:59:37;;;;;;;7.73;4.67;;;8.30;1.00;;;;;;5059692;28;20682;-57
2022/04/28 02:02:04;;;;;;;9.93;4.73;;;8.40;99.90;;;;;;5060257;28;20231;-55
2022/04/28 02:04:32;;;;;;;9.43;4.63;;;8.40;1.00;;;;;;5057919;28;20202;-56
2022/04/28 02:06:59;;;;;;;10.07;5.07;;;8.30;99.90;;;;;;5058193;28;20243;-55
2022/04/28 02:09:26;;;;;;;10.33;5.23;;;8.40;1.00;;;;;;5058815;28;20198;-54
2022/04/28 02:11:53;;;;;;;9.30;5.20;;;8.40;1.00;;;;;;5062977;28;20549;-55
2022/04/28 02:14:20;;;;;;;10.90;4.90;;;8.50;1.00;;;;;;5038407;28;20202;-54
2022/04/28 02:16:47;;;;;;;10.60;4.90;;;8.30;1.00;;;;;;5063318;28;20687;-56
2022/04/28 02:19:14;;;;;;;7.53;5.03;;;8.40;48.50;;;;;;5057891;28;20209;-56
2022/04/28 02:21:40;;;;;;;10.83;4.90;;;8.20;82.80;;;;;;5058844;28;20216;-55
2022/04/28 02:24:07;;;;;;;8.90;5.60;;;7.90;1.00;;;;;;5058402;28;20718;-55
2022/04/28 02:26:34;;;;;;;9.87;5.40;;;8.20;1.00;;;;;;5060557;28;20299;-55
2022/04/28 02:29:01;;;;;;;8.63;5.30;;;8.30;1.00;;;;;;5060391;28;20380;-53
2022/04/28 02:31:28;;;;;;;7.83;4.97;;;8.30;99.90;;;;;;5063255;28;20205;-55
2022/04/28 02:33:55;;;;;;;9.37;5.37;;;8.30;99.90;;;;;;5059528;28;20200;-53
2022/04/28 02:36:24;;;;;;;6.90;4.97;;;8.20;99.90;;;;;;5061975;28;20554;-55
2022/04/28 02:38:51;;;;;;;11.77;5.70;;;8.20;1.00;;;;;;5057619;28;20341;-57
2022/04/28 02:41:21;;;;;;;8.93;4.80;;;8.20;1.00;;;;;;5058750;28;20288;-57
2022/04/28 02:43:49;;;;;;;8.53;5.23;;;8.20;1.00;;;;;;5057585;28;20904;-56
2022/04/28 02:46:17;;;;;;;10.60;4.97;;;7.90;1.00;;;;;;5060633;28;20237;-55
2022/04/28 02:48:45;;;;;;;9.97;5.27;;;7.90;1.00;;;;;;5056637;28;20214;-57
2022/04/28 02:51:12;;;;;;;8.63;4.90;;;7.90;1.00;;;;;;5046432;28;20209;-55
2022/04/28 02:53:39;;;;;;;9.40;6.03;;;7.80;26.40;;;;;;5065751;28;20271;-56
2022/04/28 02:56:06;;;;;;;9.83;5.30;;;7.90;99.90;;;;;;5062268;28;20243;-56
2022/04/28 02:58:37;;;;;;;12.53;5.30;;;8.00;1.00;;;;;;5042453;28;20233;-55
2022/04/28 03:01:04;;;;;;;8.87;4.90;;;7.80;27.60;;;;;;5054814;28;20253;-55
2022/04/28 03:03:31;;;;;;;11.27;5.80;;;8.00;1.00;;;;;;5063062;28;20394;-58
2022/04/28 03:11:30;;;;;;;10.10;5.80;;;7.80;99.90;;;;;;5062757;28;20261;-55
2022/04/28 03:13:57;;;;;;;8.33;5.30;;;7.80;1.00;;;;;;5065721;28;20203;-54
2022/04/28 03:16:24;;;;;;;9.03;5.27;;;7.80;99.90;;;;;;5063418;28;20298;-55
2022/04/28 03:18:51;;;;;;;10.83;5.20;;;7.80;1.00;;;;;;5059082;28;20199;-55
2022/04/28 03:21:19;;;;;;;7.80;5.03;;;7.80;99.90;;;;;;5066040;28;20669;-55
2022/04/28 03:23:46;;;;;;;15.37;5.43;;;7.90;44.60;;;;;;5067059;28;20884;-57
2022/04/28 03:26:13;;;;;;;8.50;5.10;;;7.90;53.70;;;;;;5065193;28;20225;-56
2022/04/28 03:28:40;;;;;;;12.53;5.93;;;7.80;7.10;;;;;;5062573;28;20293;-55
2022/04/28 03:31:08;;;;;;;10.83;5.57;;;7.90;1.00;;;;;;5062805;28;20705;-56
2022/04/28 03:33:35;;;;;;;8.30;5.37;;;7.70;99.90;;;;;;5064367;28;20207;-55
2022/04/28 03:36:50;;;;;;;8.20;5.13;;;7.70;99.90;;;;;;5062917;28;20236;-55
2022/04/28 03:38:49;;;;;;;12.83;4.90;;;7.70;99.90;;;;;;5060950;28;20257;-55
2022/04/28 03:41:16;;;;;;;8.63;5.53;;;7.70;1.00;;;;;;5066555;28;20231;-56
2022/04/28 03:43:44;;;;;;;17.33;5.93;;;7.60;1.00;;;;;;5064217;28;20245;-55
2022/04/28 03:46:12;;;;;;;11.73;5.63;;;7.60;1.00;;;;;;5064461;28;20834;-55
2022/04/28 03:48:39;;;;;;;10.30;6.00;;;7.60;1.00;;;;;;5063106;28;20273;-55
2022/04/28 03:51:06;;;;;;;8.73;5.97;;;7.50;1.00;;;;;;5064118;28;20234;-55
2022/04/28 03:53:33;;;;;;;9.40;5.60;;;7.60;1.00;;;;;;5047152;28;20202;-55
2022/04/28 03:56:00;;;;;;;17.30;6.00;;;7.60;1.00;;;;;;5065489;28;20620;-55
2022/04/28 03:58:27;;;;;;;10.10;6.10;;;7.50;1.00;;;;;;5064105;28;20290;-55
2022/04/28 04:00:53;;;;;;;11.53;5.90;;;7.60;1.00;;;;;;5066973;28;20283;-55
2022/04/28 04:03:20;;;;;;;9.70;5.60;;;7.60;1.00;;;;;;5064065;28;20293;-53
2022/04/28 04:05:48;;;;;;;12.93;5.83;;;7.40;1.00;;;;;;5069943;28;20212;-55
2022/04/28 04:08:15;;;;;;;9.03;5.70;;;7.40;1.00;;;;;;5069539;28;20228;-55
2022/04/28 04:10:41;;;;;;;11.63;5.67;;;7.50;1.00;;;;;;5059967;28;20249;-55
2022/04/28 04:13:08;;;;;;;12.77;6.10;;;7.50;1.00;;;;;;5064975;28;20226;-55
2022/04/28 04:15:35;;;;;;;11.60;5.97;;;7.50;1.00;;;;;;5064392;28;20280;-56
2022/04/28 04:18:03;;;;;;;8.27;5.50;;;7.40;99.90;;;;;;5069470;28;20199;-55
2022/04/28 04:20:30;;;;;;;10.20;5.70;;;7.50;99.90;;;;;;5064948;28;20730;-55
2022/04/28 04:22:59;;;;;;;11.43;5.63;;;7.50;1.00;;;;;;5065977;28;20292;-55
2022/04/28 04:25:25;;;;;;;13.53;6.53;;;7.40;1.00;;;;;;5069754;28;20614;-55
2022/04/28 04:27:58;;;;;;;10.00;6.00;;;7.50;1.00;;;;;;5068542;28;20199;-53
2022/04/28 04:33:11;;;;;;;12.97;5.80;;;7.30;1.00;;;;;;5069524;28;20602;-54
2022/04/28 04:35:37;;;;;;;14.57;6.43;;;7.40;99.90;;;;;;5067184;28;20942;-57
2022/04/28 04:38:04;;;;;;;11.40;5.93;;;7.40;1.00;;;;;;5055897;28;20226;-55
2022/04/28 04:40:31;;;;;;;11.40;5.83;;;7.40;99.90;;;;;;5050311;28;20234;-55
2022/04/28 04:42:58;;;;;;;14.67;5.97;;;7.30;1.00;;;;;;5052055;28;20345;-57
2022/04/28 04:45:25;;;;;;;10.53;6.40;;;7.40;99.90;;;;;;5051052;28;20293;-55
2022/04/28 04:47:52;;;;;;;14.27;6.00;;;7.40;99.90;;;;;;5059105;28;20196;-55
2022/04/28 04:50:18;;;;;;;11.90;6.27;;;7.40;1.00;;;;;;5050889;28;20289;-56
2022/04/28 04:52:45;;;;;;;16.07;6.20;;;7.30;1.00;;;;;;5044453;28;20293;-56
2022/04/28 04:55:12;;;;;;;11.63;5.90;;;7.30;1.00;;;;;;5045672;28;20251;-55
2022/04/28 04:57:40;;;;;;;8.20;5.63;;;7.30;99.90;;;;;;5046983;28;20262;-55
2022/04/28 05:00:08;;;;;;;9.17;5.93;;;7.10;99.90;;;;;;5049477;28;20218;-55
2022/04/28 05:02:34;;;;;;;8.47;5.70;;;7.20;1.00;;;;;;5049300;28;20208;-58
2022/04/28 05:05:02;;;;;;;12.10;6.20;;;7.20;1.00;;;;;;5045938;28;20242;-55
2022/04/28 05:07:30;;;;;;;13.93;6.37;;;7.20;1.00;;;;;;5045913;28;20206;-56
2022/04/28 05:09:57;;;;;;;8.50;5.90;;;7.20;99.90;;;;;;5047618;28;20206;-55
2022/04/28 05:12:24;;;;;;;11.70;7.07;;;7.20;99.90;;;;;;5051745;28;20273;-55
2022/04/28 05:14:50;;;;;;;10.10;6.00;;;7.10;1.00;;;;;;5055242;28;20304;-55
2022/04/28 05:17:17;;;;;;;13.27;6.33;;;7.10;1.00;;;;;;5051993;28;20208;-55
2022/04/28 05:19:44;;;;;;;13.20;6.43;;;7.10;99.90;;;;;;5043639;28;20223;-57
2022/04/28 05:22:11;;;;;;;12.57;6.07;;;7.30;6.90;;;;;;5050388;28;20227;-56
2022/04/28 05:24:38;;;;;;;13.07;6.40;;;7.50;1.00;;;;;;5049958;28;20196;-58
2022/04/28 05:27:05;;;;;;;9.93;5.90;;;7.50;99.90;;;;;;5048629;28;20251;-56
2022/04/28 05:29:32;;;;;;;11.03;6.23;;;7.60;1.00;;;;;;5057376;28;20203;-55
2022/04/28 05:31:59;;;;;;;12.63;6.30;;;7.50;36.30;;;;;;5055109;28;20210;-56
2022/04/28 05:34:26;;;;;;;13.33;6.23;;;7.60;1.00;;;;;;5052392;28;20234;-56
2022/04/28 05:36:52;;;;;;;10.17;6.63;;;7.40;3.40;;;;;;5052742;28;20245;-56
2022/04/28 05:39:19;;;;;;;13.43;6.17;;;7.50;53.80;;;;;;5052429;28;20239;-56
2022/04/28 05:41:46;;;;;;;9.93;5.50;;;7.30;99.90;;;;;;5068868;28;20203;-55
2022/04/28 05:47:00;;;;;;;8.17;6.33;;;7.60;1.00;;;;;;5066121;28;20200;-55
2022/04/28 05:49:27;;;;;;;11.17;6.47;;;7.70;1.00;;;;;;5063193;28;20199;-55
2022/04/28 05:51:54;;;;;;;12.37;6.60;;;7.70;1.00;;;;;;5064342;28;20240;-56
2022/04/28 05:54:20;;;;;;;11.33;6.67;;;7.80;1.00;;;;;;5066536;28;20681;-57
2022/04/28 05:56:47;;;;;;;14.70;7.13;;;7.90;1.00;;;;;;5070059;28;20294;-55
2022/04/28 05:59:14;;;;;;;11.03;6.17;;;7.70;1.00;;;;;;5066165;28;20283;-55
2022/04/28 06:01:41;;;;;;;10.27;6.73;;;7.80;1.00;;;;;;5063095;28;20214;-57
2022/04/28 06:04:09;;;;;;;15.03;7.23;;;7.70;1.00;;;;;;5060541;28;20204;-55
2022/04/28 06:06:39;;;;;;;10.20;6.50;;;7.90;1.00;;;;;;5065537;28;20198;-54
2022/04/28 06:09:06;;;;;;;15.50;6.97;;;7.90;99.90;;;;;;5064508;28;20670;-56
2022/04/28 06:11:32;;;;;;;11.73;6.93;;;7.90;1.00;;;;;;5056690;28;20222;-55
2022/04/28 06:13:59;;;;;;;11.90;6.90;;;7.90;1.00;;;;;;5065458;28;20202;-55
2022/04/28 06:16:26;;;;;;;13.70;6.97;;;8.10;99.90;;;;;;5066639;28;20261;-55
2022/04/28 06:18:53;;;;;;;12.47;7.37;;;8.20;1.00;;;;;;5064250;28;20196;-55
2022/04/28 06:21:20;;;;;;;10.23;6.23;;;8.10;99.90;;;;;;5065843;28;20224;-56
2022/04/28 06:23:47;;;;;;;10.20;6.33;;;8.50;1.00;;;;;;5064255;28;20288;-56
2022/04/28 06:26:14;;;;;;;19.17;6.40;;;8.50;1.00;;;;;;5062263;28;20287;-55
2022/04/28 06:28:41;;;;;;;12.53;6.93;;;8.70;99.90;;;;;;5062964;28;20318;-55
2022/04/28 06:31:08;;;;;;;14.53;6.77;;;8.70;99.90;;;;;;5064685;28;20250;-57
2022/04/28 06:33:39;;;;;;;12.17;6.77;;;8.80;99.90;;;;;;5061399;28;20683;-56
2022/04/28 06:36:06;;;;;;;11.40;6.70;;;9.00;99.90;;;;;;5066703;28;20202;-56
2022/04/28 06:38:40;;;;;;;9.97;6.37;;;9.10;1.00;;;;;;5066103;28;20233;-55
2022/04/28 06:41:06;;;;;;;13.70;6.43;;;9.30;47.00;;;;;;5064375;28;20222;-55
2022/04/28 06:43:33;;;;;;;7.33;5.70;;;9.40;1.00;;;;;;5063364;28;20227;-54
2022/04/28 06:46:12;;;;;;;11.13;6.30;;;9.30;1.00;;;;;;5060220;28;20202;-55
2022/04/28 06:48:39;;;;;;;15.97;7.37;;;9.30;1.00;;;;;;5054577;28;21195;-55
2022/04/28 06:51:06;;;;;;;13.70;6.70;;;9.70;99.90;;;;;;5063770;28;20228;-56
2022/04/28 06:53:34;;;;;;;13.43;6.83;;;9.80;93.20;;;;;;5062561;28;20266;-55
2022/04/28 06:56:00;;;;;;;10.97;6.40;;;10.10;1.00;;;;;;5057110;28;20215;-55
2022/04/28 06:58:27;;;;;;;11.10;6.10;;;10.10;1.00;;;;;;5066610;28;20212;-56
2022/04/28 07:00:54;;;;;;;15.17;6.80;;;10.30;1.00;;;;;;5065029;28;20287;-56
2022/04/28 07:03:21;;;;;;;10.97;5.87;;;10.30;1.00;;;;;;5061795;28;20256;-54
2022/04/28 07:05:48;;;;;;;9.43;5.67;;;10.30;1.00;;;;;;5061687;28;20666;-55
2022/04/28 07:08:15;;;;;;;14.20;5.40;;;10.50;1.00;;;;;;5048838;28;20202;-56
2022/04/28 07:10:42;;;;;;;11.23;6.20;;;10.70;17.70;;;;;;5061659;28;20219;-54
2022/04/28 07:13:09;;;;;;;9.60;5.13;;;10.40;99.90;;;;;;5066521;28;20198;-55
2022/04/28 07:15:38;;;;;;;16.23;5.70;;;10.70;99.90;;;;;;5061415;28;20768;-53
2022/04/28 07:18:05;;;;;;;12.93;6.43;;;10.70;1.00;;;;;;5056724;28;20276;-55
2022/04/28 07:20:35;;;;;;;10.40;5.40;;;11.00;40.10;;;;;;5064237;28;20202;-55
2022/04/28 07:23:03;;;;;;;10.13;5.53;;;10.90;18.10;;;;;;5064211;28;20311;-55
2022/04/28 07:25:30;;;;;;;9.60;5.67;;;11.00;71.10;;;;;;5057774;28;20301;-55
2022/04/28 07:27:57;;;;;;;7.80;4.73;;;11.40;1.00;;;;;;5049986;28;21095;-54
2022/04/28 07:30:26;;;;;;;10.47;5.60;;;11.20;1.00;;;;;;5061535;28;20311;-54
2022/04/28 07:32:53;;;;;;;9.87;5.93;;;10.90;32.60;;;;;;5033852;28;20212;-55
2022/04/28 07:35:21;;;;;;;9.50;5.80;;;10.90;99.90;;;;;;5054803;28;20215;-54
2022/04/28 07:37:48;;;;;;;9.40;4.60;;;10.60;99.90;;;;;;5056941;28;20702;-55
2022/04/28 07:40:15;;;;;;;9.93;5.40;;;10.70;99.90;;;;;;5058911;28;20203;-55
2022/04/28 07:42:42;;;;;;;12.33;5.93;;;10.60;99.90;;;;;;5059408;28;20202;-52
2022/04/28 07:45:09;;;;;;;7.70;4.70;;;10.90;1.00;;;;;;5057025;28;20206;-53
2022/04/28 07:47:36;;;;;;;12.70;6.03;;;11.10;1.00;;;;;;5060443;28;20262;-55
2022/04/28 07:50:03;;;;;;;11.73;5.37;;;10.90;1.00;;;;;;5060874;28;20222;-55
2022/04/28 07:52:30;;;;;;;9.07;5.10;;;11.00;1.00;;;;;;5055069;28;20210;-54
2022/04/28 07:54:57;;;;;;;10.60;4.80;;;11.40;1.00;;;;;;5052080;28;20207;-54
2022/04/28 07:57:24;;;;;;;9.17;4.87;;;11.40;1.00;;;;;;5059026;28;20691;-56
2022/04/28 07:59:51;;;;;;;8.37;5.07;;;11.30;1.00;;;;;;5057420;28;20257;-53
2022/04/28 08:02:18;;;;;;;7.77;4.77;;;11.40;1.00;;;;;;5053481;28;20241;-55
2022/04/28 08:04:45;;;;;;;8.23;5.13;;;11.60;1.00;;;;;;5059460;28;20218;-55
2022/04/28 08:07:11;;;;;;;9.03;4.97;;;12.00;99.90;;;;;;5062437;28;20341;-52
2022/04/28 08:09:38;;;;;;;10.80;4.47;;;12.30;99.90;;;;;;5063003;28;20305;-57
2022/04/28 08:12:06;;;;;;;10.93;4.53;;;12.20;99.90;;;;;;5055020;28;20209;-52
2022/04/28 08:14:33;;;;;;;9.53;4.60;;;12.20;99.90;;;;;;5054697;28;20296;-55
2022/04/28 08:17:01;;;;;;;9.30;4.43;;;11.90;99.90;;;;;;5061735;28;20701;-56
2022/04/28 08:19:27;;;;;;;6.87;4.07;;;12.50;99.90;;;;;;5057486;28;20263;-55
2022/04/28 08:21:54;;;;;;;14.67;5.40;;;11.90;99.90;;;;;;5065136;28;20337;-55
2022/04/28 08:24:21;;;;;;;10.20;4.30;;;12.00;99.90;;;;;;5038208;28;20205;-55
2022/04/28 08:26:48;;;;;;;8.90;4.30;;;12.10;99.90;;;;;;5037472;28;20204;-55
2022/04/28 08:29:15;;;;;;;7.67;4.57;;;12.20;69.90;;;;;;5057388;28;20666;-62
2022/04/28 08:31:45;;;;;;;8.20;4.50;;;12.80;1.00;;;;;;5061198;28;20655;-60
2022/04/28 08:34:14;;;;;;;8.80;4.13;;;13.00;1.00;;;;;;5053948;28;20289;-61
2022/04/28 08:36:41;;;;;;;7.77;4.00;;;12.90;1.00;;;;;;5061097;28;20294;-61
2022/04/28 08:39:08;;;;;;;9.33;4.23;;;13.50;1.00;;;;;;5055731;28;20743;-54
2022/04/28 08:41:37;;;;;;;7.43;3.57;;;13.30;1.00;;;;;;5059028;28;20221;-55
2022/04/28 08:44:05;;;;;;;8.80;3.87;;;14.00;1.00;;;;;;5053927;28;20313;-54
2022/04/28 08:46:51;;;;;;;6.60;4.17;;;13.90;1.00;;;;;;5054744;28;20246;-54
2022/04/28 08:49:25;;;;;;;7.80;4.20;;;14.30;1.00;;;;;;5057819;28;20749;-54
2022/04/28 08:51:53;;;;;;;8.60;4.17;;;14.00;1.00;;;;;;5055677;28;20258;-52
2022/04/28 08:54:22;;;;;;;11.57;4.10;;;13.80;1.00;;;;;;5041030;28;20196;-55
2022/04/28 08:56:51;;;;;;;7.17;3.70;;;13.60;1.00;;;;;;5060967;28;20260;-55
2022/04/28 08:59:19;;;;;;;7.60;3.60;;;13.90;1.00;;;;;;5063647;28;20304;-54
2022/04/28 09:01:47;;;;;;;7.80;3.87;;;14.40;1.00;;;;;;5062110;28;20504;-54
2022/04/28 09:04:14;;;;;;;9.60;4.23;;;14.90;99.90;;;;;;5043250;28;20287;-54
2022/04/28 09:06:42;;;;;;;9.47;4.37;;;15.10;99.90;;;;;;5067187;28;20711;-55
2022/04/28 09:09:15;;;;;;;7.03;3.73;;;15.20;99.90;;;;;;5065853;28;20201;-59
2022/04/28 09:11:43;;;;;;;8.00;3.80;;;14.80;99.90;;;;;;5058944;28;20201;-54
2022/04/28 09:14:11;;;;;;;6.73;4.10;;;13.40;1.00;;;;;;5062666;28;20259;-53
2022/04/28 09:16:49;;;;;;;7.97;4.27;;;13.70;1.00;;;;;;5062389;28;20205;-54
2022/04/28 09:19:17;;;;;;;7.37;3.83;;;13.20;1.00;;;;;;5055739;28;20658;-55
2022/04/28 09:21:44;;;;;;;7.80;4.00;;;13.50;1.00;;;;;;5057256;28;20309;-57
2022/04/28 09:24:11;;;;;;;11.23;4.00;;;14.10;1.00;;;;;;5056635;28;20678;-55
2022/04/28 09:26:38;;;;;;;7.57;4.03;;;14.80;99.90;;;;;;5042894;28;20192;-54
2022/04/28 09:29:09;;;;;;;7.10;4.20;;;15.00;99.90;;;;;;5057507;28;20251;-54
2022/04/28 09:31:37;;;;;;;11.07;5.57;;;14.30;99.90;;;;;;5057704;28;20433;-54
2022/04/28 09:34:25;;;;;;;9.63;4.73;;;14.00;1.00;;;;;;5048435;28;20258;-54
2022/04/28 09:36:54;;;;;;;7.87;3.63;;;13.90;1.00;;;;;;5060337;28;20637;-55
2022/04/28 09:42:30;;;;;;;7.07;3.73;;;14.80;99.90;;;;;;5037295;28;20702;-53
2022/04/28 09:44:59;;;;;;;6.10;4.00;;;15.30;99.90;;;;;;5024422;28;20200;-55
2022/04/28 09:47:27;;;;;;;7.10;4.13;;;15.30;99.90;;;;;;5040898;28;20580;-60
2022/04/28 09:49:57;;;;;;;7.47;4.10;;;15.10;99.90;;;;;;5033530;28;20728;-54
2022/04/28 09:52:24;;;;;;;8.00;4.17;;;15.30;99.90;;;;;;5034648;28;20654;-55
2022/04/28 09:54:56;;;;;;;7.73;4.47;;;15.30;99.90;;;;;;5028920;28;20196;-55
2022/04/28 09:57:23;;;;;;;13.47;5.57;;;15.20;99.90;;;;;;5037445;28;20616;-55
2022/04/28 09:59:53;;;;;;;5.43;3.70;;;14.30;99.90;;;;;;5028218;28;20576;-54
2022/04/28 10:02:22;;;;;;;6.20;4.23;;;14.50;99.90;;;;;;5036115;28;20288;-54
2022/04/28 10:04:51;;;;;;;6.30;4.50;;;14.00;99.90;;;;;;5022852;28;20205;-53
2022/04/28 10:07:20;;;;;;;7.60;4.47;;;13.70;1.00;;;;;;5033225;28;20260;-56
2022/04/28 10:09:49;;;;;;;7.57;4.20;;;14.30;1.00;;;;;;5036565;28;20234;-54
2022/04/28 10:12:19;;;;;;;7.47;4.40;;;14.40;1.00;;;;;;5031860;28;20641;-54
2022/04/28 10:14:48;;;;;;;8.23;4.60;;;14.70;99.90;;;;;;5035217;28;20318;-53
2022/04/28 10:17:19;;;;;;;7.17;4.10;;;15.00;99.90;;;;;;5042402;28;20224;-54
2022/04/28 10:19:53;;;;;;;6.57;4.50;;;15.20;99.90;;;;;;5032590;28;20963;-54
2022/04/28 10:22:29;;;;;;;7.00;4.47;;;15.10;99.90;;;;;;5038457;28;20231;-54
2022/04/28 10:33:23;;;;;;;15.73;5.20;;;14.90;99.90;;;;;;5036324;28;20690;-54
2022/04/28 10:35:50;;;;;;;6.67;4.47;;;14.60;99.90;;;;;;5038124;28;20231;-54
2022/04/28 10:38:38;;;;;;;5.93;4.10;;;14.90;99.90;;;;;;5035206;28;20228;-55
2022/04/28 10:41:10;;;;;;;11.87;5.03;;;15.20;99.90;;;;;;5025686;28;20235;-54
2022/04/28 10:43:43;;;;;;;5.03;4.37;;;14.60;99.90;;;;;;5028215;28;20990;-54
2022/04/28 10:46:22;;;;;;;9.30;4.70;;;14.50;99.90;;;;;;5038024;28;20197;-53
2022/04/28 10:48:59;;;;;;;9.53;4.83;;;15.10;99.90;;;;;;5040170;28;20197;-54
2022/04/28 10:51:30;;;;;;;7.93;5.17;;;15.50;99.90;;;;;;5041079;28;20278;-54
2022/04/28 10:54:11;;;;;;;9.33;5.30;;;15.20;99.90;;;;;;5029899;28;20201;-54
2022/04/28 10:56:56;;;;;;;11.17;5.17;;;15.00;99.90;;;;;;5034469;28;20310;-54
2022/04/28 10:59:29;;;;;;;8.23;4.60;;;14.60;99.90;;;;;;5033908;28;20561;-54
2022/04/28 11:01:57;;;;;;;9.60;4.67;;;14.70;99.90;;;;;;5040352;28;20602;-55
2022/04/28 11:04:25;;;;;;;8.80;4.67;;;14.90;99.90;;;;;;5039391;28;20231;-54
2022/04/28 11:06:57;;;;;;;6.53;4.80;;;15.10;99.90;;;;;;5044528;28;20532;-54
2022/04/28 11:09:55;;;;;;;5.83;4.60;;;15.30;99.90;;;;;;5023344;28;20255;-54
2022/04/28 11:12:25;;;;;;;9.77;5.17;;;15.40;99.90;;;;;;5037071;28;20477;-54
2022/04/28 11:15:02;;;;;;;8.53;5.40;;;15.10;99.90;;;;;;5044245;28;20210;-55
2022/04/28 11:17:36;;;;;;;10.30;5.33;;;15.60;99.90;;;;;;5044303;28;20246;-53
2022/04/28 11:20:07;;;;;;;6.30;4.50;;;16.00;99.90;;;;;;5039856;28;20270;-54
2022/04/28 11:22:43;;;;;;;5.63;4.57;;;16.70;99.90;;;;;;5036587;28;20228;-53
2022/04/28 11:25:12;;;;;;;9.80;4.93;;;17.10;83.20;;;;;;5036977;28;20564;-54
2022/04/28 11:27:40;;;;;;;11.43;5.33;;;16.70;99.90;;;;;;5032547;28;20229;-53
2022/04/28 11:30:19;;;;;;;7.37;3.93;;;17.10;48.10;;;;;;5036485;28;20544;-54
2022/04/28 11:32:52;;;;;;;5.00;4.27;;;17.60;99.90;;;;;;5037127;28;20688;-52
2022/04/28 11:35:20;;;;;;;8.10;4.00;;;17.40;22.10;;;;;;5037383;28;20218;-54
2022/04/28 11:37:53;;;;;;;7.67;4.40;;;17.60;98.80;;;;;;5032175;28;20611;-53
2022/04/28 11:40:22;;;;;;;7.40;5.00;;;17.60;99.90;;;;;;5055970;28;20987;-53
2022/04/28 11:42:57;;;;;;;9.77;4.10;;;18.00;1.00;;;;;;5059869;28;20210;-54
2022/04/28 11:45:26;;;;;;;5.20;4.37;;;18.60;1.00;;;;;;5061811;28;20219;-54
2022/04/28 11:47:56;;;;;;;6.83;4.20;;;18.10;1.00;;;;;;5051830;28;20199;-54
2022/04/28 11:50:30;;;;;;;7.03;4.47;;;18.00;1.00;;;;;;5056319;28;20288;-54
2022/04/28 11:53:04;;;;;;;6.77;4.53;;;18.10;1.00;;;;;;5054438;28;20199;-54
2022/04/28 11:55:36;;;;;;;6.40;4.37;;;17.90;1.00;;;;;;5055834;28;20206;-54
2022/04/28 11:58:04;;;;;;;9.07;4.57;;;18.60;1.00;;;;;;5055848;28;20242;-56
2022/04/28 12:00:37;;;;;;;10.20;4.63;;;18.20;1.00;;;;;;5054362;28;20201;-54
2022/04/28 12:03:05;;;;;;;8.17;4.20;;;18.00;5.70;;;;;;5060165;28;20543;-55
2022/04/28 12:05:34;;;;;;;6.60;4.90;;;18.10;1.00;;;;;;5058134;28;20214;-53
2022/04/28 12:08:02;;;;;;;8.47;5.03;;;17.20;1.00;;;;;;5060470;28;20220;-54
2022/04/28 12:16:14;;;;;;;10.33;5.10;;;18.00;1.00;;;;;;5060085;28;20632;-54
2022/04/28 12:21:38;;;;;;;8.33;5.00;;;17.90;1.00;;;;;;5056743;28;20231;-54
2022/04/28 12:24:14;;;;;;;6.83;4.67;;;17.20;1.00;;;;;;5055552;28;20227;-54
2022/04/28 12:26:47;;;;;;;8.83;5.43;;;18.00;1.00;;;;;;5059485;28;21409;-58
2022/04/28 12:29:16;;;;;;;6.23;4.43;;;17.40;1.00;;;;;;5057963;28;20289;-55
2022/04/28 12:31:44;;;;;;;6.70;4.27;;;17.80;1.00;;;;;;5062521;28;20705;-56
2022/04/28 12:34:22;;;;;;;7.97;4.47;;;18.00;1.00;;;;;;5038323;28;20564;-53
2022/04/28 12:36:58;;;;;;;8.70;4.60;;;18.20;1.00;;;;;;5059740;28;20195;-54
2022/04/28 12:39:49;;;;;;;6.23;4.77;;;18.40;1.00;;;;;;5059246;28;20238;-54
2022/04/28 12:42:16;;;;;;;9.57;5.00;;;17.80;1.00;;;;;;5057730;28;20290;-54
2022/04/28 12:44:44;;;;;;;7.60;5.20;;;17.70;1.00;;;;;;5057518;28;20632;-58
2022/04/28 12:47:12;;;;;;;7.77;5.37;;;18.60;1.00;;;;;;5060444;28;20195;-54
2022/04/28 12:49:48;;;;;;;9.90;5.23;;;18.30;1.00;;;;;;5058762;28;20712;-55
2022/04/28 12:52:29;;;;;;;11.53;5.37;;;18.70;1.00;;;;;;5054168;28;20206;-55
2022/04/28 12:55:06;;;;;;;9.80;4.77;;;18.70;1.00;;;;;;5052632;28;20316;-55
2022/04/28 12:57:34;;;;;;;9.03;4.70;;;19.30;1.00;;;;;;5054254;28;20248;-54
2022/04/28 13:00:04;;;;;;;5.83;4.97;;;20.00;1.00;;;;;;5062857;28;20671;-54
2022/04/28 13:02:32;;;;;;;7.03;4.40;;;18.80;1.00;;;;;;5053181;28;20211;-55
2022/04/28 13:05:14;;;;;;;13.27;5.23;;;18.50;1.00;;;;;;5056918;28;20195;-55
2022/04/28 13:08:00;;;;;;;9.20;4.50;;;18.80;1.00;;;;;;5058596;28;20195;-55
2022/04/28 13:10:27;;;;;;;8.53;4.87;;;19.70;1.00;;;;;;5061851;28;20264;-55
2022/04/28 13:12:54;;;;;;;6.27;4.50;;;19.70;1.00;;;;;;5059086;28;20227;-55
2022/04/28 13:15:21;;;;;;;9.17;5.00;;;20.20;1.00;;;;;;5056624;28;20199;-56
2022/04/28 13:17:48;;;;;;;7.40;5.00;;;19.70;1.00;;;;;;5053725;28;20196;-54
2022/04/28 13:20:14;;;;;;;8.53;4.53;;;20.10;1.00;;;;;;5057565;28;20235;-54
2022/04/28 13:22:41;;;;;;;11.90;4.90;;;19.50;1.00;;;;;;5059577;28;20693;-53
2022/04/28 13:25:08;;;;;;;8.90;4.80;;;19.00;1.00;;;;;;5062212;28;20615;-54
2022/04/28 13:27:35;;;;;;;5.97;3.80;;;18.80;1.00;;;;;;5062203;28;20544;-53
2022/04/28 13:30:02;;;;;;;12.67;4.77;;;19.00;1.00;;;;;;5057024;28;20240;-54
2022/04/28 13:32:29;;;;;;;11.43;5.33;;;19.10;1.00;;;;;;5055983;28;20210;-55
2022/04/28 13:34:56;;;;;;;8.70;4.90;;;19.10;1.00;;;;;;5047759;28;20203;-54
2022/04/28 13:37:23;;;;;;;9.77;5.10;;;19.30;1.00;;;;;;5053370;28;20329;-54
2022/04/28 13:39:50;;;;;;;8.83;4.60;;;19.30;1.00;;;;;;5058903;28;20298;-54